Time;durP1;ratioP1;P1;durP2;ratioP2;P2;SDS_P1;SDS_P2;PMS_P1;PMS_P2;Temp;Humidity;BMP_temperature;BMP_pressure;BME280_temperature;BME280_humidity;BME280_pressure;Samples;Min_cycle;Max_cycle;Signal;HPM_P1;HPM_P2
2022/05/10 00:00:26;;;;;;;9.00;7.50;;;;;;;;;;5097162;28;20052;-79
2022/05/10 00:02:53;;;;;;;11.52;8.02;;;;;;;;;;5095727;28;20020;-79
2022/05/10 00:05:21;;;;;;;9.40;7.35;;;;;;;;;;5096641;28;20028;-80
2022/05/10 00:07:47;;;;;;;9.82;8.57;;;;;;;;;;5097098;28;20088;-80
2022/05/10 00:10:13;;;;;;;9.60;7.88;;;;;;;;;;5096869;28;20032;-79
2022/05/10 00:12:39;;;;;;;9.55;8.52;;;;;;;;;;5096844;28;20261;-80
2022/05/10 00:15:06;;;;;;;9.75;7.55;;;;;;;;;;5095958;28;20094;-80
2022/05/10 00:17:36;;;;;;;10.13;8.18;;;;;;;;;;5096180;28;20394;-79
2022/05/10 00:20:03;;;;;;;10.25;8.32;;;;;;;;;;5096947;28;20024;-80
2022/05/10 00:22:29;;;;;;;10.80;8.15;;;;;;;;;;5097078;28;20048;-79
2022/05/10 00:24:56;;;;;;;9.60;8.60;;;;;;;;;;5096076;28;20085;-80
2022/05/10 00:27:22;;;;;;;9.60;8.60;;;;;;;;;;5096327;28;20047;-80
2022/05/10 00:29:48;;;;;;;9.43;7.93;;;;;;;;;;5094283;28;20074;-79
2022/05/10 00:32:14;;;;;;;9.48;7.85;;;;;;;;;;5095535;28;20102;-80
2022/05/10 00:34:41;;;;;;;10.15;8.35;;;;;;;;;;5095952;28;20091;-79
2022/05/10 00:37:07;;;;;;;9.20;8.23;;;;;;;;;;5096895;28;20020;-80
2022/05/10 00:39:33;;;;;;;10.23;8.20;;;;;;;;;;5096962;28;20016;-79
2022/05/10 00:42:03;;;;;;;11.25;8.65;;;;;;;;;;5095008;28;20137;-79
2022/05/10 00:44:29;;;;;;;9.93;8.18;;;;;;;;;;5095979;28;20073;-79
2022/05/10 00:47:05;;;;;;;10.30;8.70;;;;;;;;;;5096519;28;20035;-79
2022/05/10 00:49:54;;;;;;;10.38;9.27;;;;;;;;;;5094655;28;20511;-79
2022/05/10 00:52:32;;;;;;;9.57;8.43;;;;;;;;;;5094167;28;20039;-79
2022/05/10 00:55:01;;;;;;;10.38;8.73;;;;;;;;;;5096149;28;20024;-79
2022/05/10 00:57:30;;;;;;;11.77;8.93;;;;;;;;;;5096008;28;20032;-79
2022/05/10 01:00:10;;;;;;;11.18;8.90;;;;;;;;;;5096445;28;20035;-79
2022/05/10 01:02:55;;;;;;;11.93;8.85;;;;;;;;;;5094063;28;20055;-80
2022/05/10 01:05:37;;;;;;;11.73;8.95;;;;;;;;;;5093626;28;20028;-79
2022/05/10 01:08:21;;;;;;;10.57;8.57;;;;;;;;;;5096660;28;20024;-79
2022/05/10 01:11:01;;;;;;;11.55;9.23;;;;;;;;;;5095525;28;20119;-80
2022/05/10 01:13:38;;;;;;;10.73;9.50;;;;;;;;;;5094457;28;20035;-80
2022/05/10 01:16:04;;;;;;;10.63;9.02;;;;;;;;;;5094293;28;20036;-79
2022/05/10 01:18:30;;;;;;;11.25;10.05;;;;;;;;;;5095796;28;20028;-79
2022/05/10 01:20:59;;;;;;;10.73;9.35;;;;;;;;;;5095416;28;20043;-79
2022/05/10 01:23:45;;;;;;;10.85;9.43;;;;;;;;;;5093767;28;20122;-79
2022/05/10 01:26:34;;;;;;;11.02;9.52;;;;;;;;;;5095320;28;20065;-79
2022/05/10 01:29:03;;;;;;;11.35;10.15;;;;;;;;;;5060290;28;20111;-79
2022/05/10 01:31:33;;;;;;;11.63;10.15;;;;;;;;;;5099433;28;20028;-79
2022/05/10 01:34:05;;;;;;;11.60;9.80;;;;;;;;;;5095987;28;20020;-80
2022/05/10 01:36:34;;;;;;;11.57;9.80;;;;;;;;;;5094891;28;20111;-80
2022/05/10 01:39:09;;;;;;;13.00;10.75;;;;;;;;;;5094267;28;20039;-80
2022/05/10 01:41:54;;;;;;;12.13;10.23;;;;;;;;;;5086535;28;20127;-80
2022/05/10 01:44:29;;;;;;;12.07;10.80;;;;;;;;;;5095065;28;20028;-80
2022/05/10 01:46:58;;;;;;;11.68;10.15;;;;;;;;;;5092735;28;20595;-80
2022/05/10 01:49:24;;;;;;;11.75;10.55;;;;;;;;;;5094097;28;20056;-80
2022/05/10 01:51:55;;;;;;;11.75;10.25;;;;;;;;;;5095236;28;20032;-80
2022/05/10 01:54:34;;;;;;;12.73;11.25;;;;;;;;;;5093928;28;20343;-79
2022/05/10 01:57:00;;;;;;;11.60;10.18;;;;;;;;;;5091068;28;20031;-80
2022/05/10 01:59:26;;;;;;;12.45;10.63;;;;;;;;;;5096474;28;20036;-80
2022/05/10 02:01:53;;;;;;;13.13;10.82;;;;;;;;;;5096418;28;20060;-79
2022/05/10 02:04:22;;;;;;;13.73;11.20;;;;;;;;;;5096565;28;20028;-80
2022/05/10 02:06:48;;;;;;;13.00;10.43;;;;;;;;;;5094133;28;20039;-80
2022/05/10 02:09:14;;;;;;;16.48;10.70;;;;;;;;;;5097158;28;20040;-80
2022/05/10 02:11:42;;;;;;;13.00;11.40;;;;;;;;;;5093905;28;20024;-80
2022/05/10 02:14:20;;;;;;;12.45;10.65;;;;;;;;;;5094151;28;20429;-80
2022/05/10 02:16:49;;;;;;;13.40;10.70;;;;;;;;;;5093959;28;20481;-80
2022/05/10 02:19:15;;;;;;;12.82;11.00;;;;;;;;;;5095281;28;20032;-80
2022/05/10 02:21:47;;;;;;;11.82;10.25;;;;;;;;;;5092856;28;20058;-80
2022/05/10 02:24:16;;;;;;;13.45;10.85;;;;;;;;;;5093820;28;20105;-79
2022/05/10 02:27:05;;;;;;;13.82;10.85;;;;;;;;;;5095130;28;20032;-79
2022/05/10 02:29:40;;;;;;;11.85;10.40;;;;;;;;;;5089381;28;20094;-80
2022/05/10 02:34:54;;;;;;;13.35;10.40;;;;;;;;;;5095136;28;20039;-79
2022/05/10 02:37:22;;;;;;;15.30;10.88;;;;;;;;;;5093716;28;20024;-80
2022/05/10 02:39:48;;;;;;;12.98;11.32;;;;;;;;;;5095079;28;20031;-80
2022/05/10 02:42:15;;;;;;;15.38;11.80;;;;;;;;;;5092826;28;20116;-80
2022/05/10 02:44:42;;;;;;;13.23;10.98;;;;;;;;;;5094541;28;20028;-81
2022/05/10 02:47:08;;;;;;;12.55;11.25;;;;;;;;;;5095092;28;20024;-82
2022/05/10 02:49:35;;;;;;;13.18;11.00;;;;;;;;;;5095179;28;20049;-80
2022/05/10 02:52:02;;;;;;;12.95;11.05;;;;;;;;;;5094809;28;20131;-79
2022/05/10 02:54:28;;;;;;;12.95;11.40;;;;;;;;;;5095678;28;20177;-81
2022/05/10 02:56:54;;;;;;;13.23;11.68;;;;;;;;;;5097367;28;20470;-80
2022/05/10 02:59:25;;;;;;;12.73;11.43;;;;;;;;;;5098303;28;20039;-80
2022/05/10 03:02:01;;;;;;;14.18;11.05;;;;;;;;;;5096964;28;20078;-81
2022/05/10 03:04:34;;;;;;;12.07;10.77;;;;;;;;;;5098016;28;20028;-81
2022/05/10 03:07:00;;;;;;;11.82;10.32;;;;;;;;;;5097327;28;20441;-80
2022/05/10 03:09:26;;;;;;;14.00;10.93;;;;;;;;;;5098587;28;20069;-81
2022/05/10 03:11:52;;;;;;;12.80;11.20;;;;;;;;;;5098283;28;20024;-80
2022/05/10 03:14:19;;;;;;;12.88;10.52;;;;;;;;;;5096939;28;20084;-81
2022/05/10 03:16:45;;;;;;;13.45;11.88;;;;;;;;;;5096133;28;20024;-80
2022/05/10 03:19:11;;;;;;;12.00;10.52;;;;;;;;;;5098395;28;20395;-81
2022/05/10 03:21:38;;;;;;;11.32;10.13;;;;;;;;;;5097839;28;20055;-80
2022/05/10 03:24:04;;;;;;;13.15;10.55;;;;;;;;;;5097139;28;20491;-80
2022/05/10 03:26:31;;;;;;;13.35;11.40;;;;;;;;;;5096981;28;20081;-81
2022/05/10 03:28:57;;;;;;;12.15;10.85;;;;;;;;;;5098137;28;20479;-80
2022/05/10 03:31:25;;;;;;;14.35;11.45;;;;;;;;;;5097123;28;20026;-81
2022/05/10 03:36:38;;;;;;;15.15;11.90;;;;;;;;;;5089595;28;20115;-81
2022/05/10 03:39:04;;;;;;;11.68;10.45;;;;;;;;;;5096003;28;20020;-81
2022/05/10 03:41:30;;;;;;;15.43;11.52;;;;;;;;;;5096463;28;20479;-81
2022/05/10 03:43:56;;;;;;;15.38;11.63;;;;;;;;;;5098094;28;20028;-81
2022/05/10 03:46:22;;;;;;;15.43;10.85;;;;;;;;;;5083166;28;20080;-81
2022/05/10 03:48:50;;;;;;;17.00;11.80;;;;;;;;;;5076961;28;20127;-80
2022/05/10 03:51:16;;;;;;;13.98;11.55;;;;;;;;;;5090763;28;20012;-81
2022/05/10 03:53:42;;;;;;;14.52;11.25;;;;;;;;;;5097422;28;20017;-81
2022/05/10 03:56:09;;;;;;;13.00;10.98;;;;;;;;;;5095641;28;20021;-81
2022/05/10 03:58:35;;;;;;;14.07;11.77;;;;;;;;;;5093347;28;20078;-81
2022/05/10 04:01:01;;;;;;;14.32;11.43;;;;;;;;;;5094369;28;20035;-81
2022/05/10 04:03:27;;;;;;;15.10;11.25;;;;;;;;;;5096258;28;20020;-81
2022/05/10 04:05:53;;;;;;;13.57;12.05;;;;;;;;;;5096072;28;20054;-81
2022/05/10 04:08:19;;;;;;;13.80;11.20;;;;;;;;;;5095244;28;20020;-81
2022/05/10 04:10:45;;;;;;;12.68;11.18;;;;;;;;;;5095830;28;20477;-81
2022/05/10 04:13:11;;;;;;;13.40;11.60;;;;;;;;;;5087903;28;20019;-81
2022/05/10 04:15:37;;;;;;;15.00;11.35;;;;;;;;;;5093722;28;20089;-81
2022/05/10 04:18:03;;;;;;;12.73;11.10;;;;;;;;;;5107063;28;20103;-81
2022/05/10 04:20:29;;;;;;;12.32;9.93;;;;;;;;;;5094939;28;20032;-81
2022/05/10 04:22:55;;;;;;;13.65;12.15;;;;;;;;;;5095713;28;20047;-81
2022/05/10 04:25:23;;;;;;;13.65;11.18;;;;;;;;;;5087911;28;20105;-81
2022/05/10 04:27:51;;;;;;;12.23;10.80;;;;;;;;;;5088119;28;20491;-81
2022/05/10 04:30:17;;;;;;;14.45;11.10;;;;;;;;;;5087949;28;20030;-80
2022/05/10 04:32:43;;;;;;;13.48;11.82;;;;;;;;;;5096687;28;20028;-81
2022/05/10 04:35:09;;;;;;;13.32;11.93;;;;;;;;;;5095443;28;20032;-81
2022/05/10 04:37:35;;;;;;;16.80;14.02;;;;;;;;;;5096743;28;20122;-80
2022/05/10 04:42:46;;;;;;;15.25;12.98;;;;;;;;;;5102620;28;20073;-80
2022/05/10 04:45:13;;;;;;;13.82;11.68;;;;;;;;;;5095779;28;20024;-81
2022/05/10 04:47:39;;;;;;;13.40;11.70;;;;;;;;;;5096991;28;20380;-81
2022/05/10 04:50:06;;;;;;;14.55;11.63;;;;;;;;;;5095707;28;20066;-81
2022/05/10 04:52:32;;;;;;;14.07;11.73;;;;;;;;;;5091903;28;20024;-81
2022/05/10 04:54:58;;;;;;;13.18;11.18;;;;;;;;;;5095792;28;20047;-81
2022/05/10 04:57:24;;;;;;;14.32;11.85;;;;;;;;;;5095900;28;20112;-81
2022/05/10 04:59:50;;;;;;;12.93;10.68;;;;;;;;;;5094913;28;20028;-81
2022/05/10 05:02:16;;;;;;;13.13;11.57;;;;;;;;;;5092497;28;20032;-81
2022/05/10 05:04:42;;;;;;;14.70;10.98;;;;;;;;;;5094886;28;20034;-81
2022/05/10 05:07:09;;;;;;;13.75;11.40;;;;;;;;;;5095538;28;20507;-80
2022/05/10 05:09:35;;;;;;;13.52;11.32;;;;;;;;;;5096857;28;20024;-81
2022/05/10 05:12:01;;;;;;;12.40;11.10;;;;;;;;;;5096320;28;20050;-81
2022/05/10 05:14:27;;;;;;;14.27;11.63;;;;;;;;;;5095099;28;20043;-81
2022/05/10 05:16:54;;;;;;;13.75;11.43;;;;;;;;;;5094853;28;20475;-82
2022/05/10 05:19:21;;;;;;;12.45;11.15;;;;;;;;;;5093789;28;20020;-81
2022/05/10 05:21:47;;;;;;;14.32;11.88;;;;;;;;;;5095379;28;20574;-82
2022/05/10 05:24:13;;;;;;;14.82;11.98;;;;;;;;;;5095324;28;20036;-82
2022/05/10 05:26:39;;;;;;;16.13;11.25;;;;;;;;;;5096004;28;20103;-82
2022/05/10 05:29:05;;;;;;;14.27;11.23;;;;;;;;;;5096295;28;20079;-82
2022/05/10 05:31:32;;;;;;;12.68;10.70;;;;;;;;;;5098319;28;20021;-82
2022/05/10 05:33:58;;;;;;;17.38;15.40;;;;;;;;;;5098031;28;20024;-82
2022/05/10 05:36:24;;;;;;;14.38;12.50;;;;;;;;;;5086742;28;20039;-82
2022/05/10 05:38:51;;;;;;;15.57;12.60;;;;;;;;;;5094236;28;20031;-82
2022/05/10 05:41:18;;;;;;;12.95;11.57;;;;;;;;;;5092991;28;20063;-82
2022/05/10 05:43:44;;;;;;;13.10;11.23;;;;;;;;;;5091387;28;20024;-82
2022/05/10 05:46:10;;;;;;;12.77;11.48;;;;;;;;;;5095982;28;20024;-82
2022/05/10 05:48:37;;;;;;;12.95;11.55;;;;;;;;;;5096790;28;20095;-82
2022/05/10 05:51:03;;;;;;;13.82;10.73;;;;;;;;;;5096066;28;20016;-82
2022/05/10 05:53:29;;;;;;;13.55;10.80;;;;;;;;;;5094203;28;20016;-82
2022/05/10 05:56:08;;;;;;;13.13;9.95;;;;;;;;;;5095559;28;20028;-82
2022/05/10 05:58:34;;;;;;;11.88;10.30;;;;;;;;;;5094240;28;20020;-82
2022/05/10 06:01:00;;;;;;;14.13;10.13;;;;;;;;;;5094884;28;20043;-82
2022/05/10 06:03:26;;;;;;;14.52;10.35;;;;;;;;;;5094854;28;20029;-82
2022/05/10 06:05:52;;;;;;;12.80;9.50;;;;;;;;;;5096018;28;20033;-82
2022/05/10 06:08:19;;;;;;;13.80;9.85;;;;;;;;;;5096115;28;20495;-82
2022/05/10 06:10:49;;;;;;;11.85;9.15;;;;;;;;;;5096396;28;20028;-82
2022/05/10 06:13:18;;;;;;;11.55;8.63;;;;;;;;;;5095481;28;20024;-83
2022/05/10 06:15:44;;;;;;;11.40;8.85;;;;;;;;;;5096088;28;20016;-83
2022/05/10 06:18:10;;;;;;;11.60;8.80;;;;;;;;;;5096410;28;20249;-83
2022/05/10 06:20:36;;;;;;;12.00;8.48;;;;;;;;;;5096034;28;20032;-83
2022/05/10 06:23:04;;;;;;;11.68;8.18;;;;;;;;;;5095527;28;20028;-82
2022/05/10 06:25:30;;;;;;;12.18;8.43;;;;;;;;;;5094508;28;20028;-83
2022/05/10 06:27:56;;;;;;;15.07;9.07;;;;;;;;;;5096476;28;20064;-83
2022/05/10 06:30:23;;;;;;;12.70;8.35;;;;;;;;;;5100279;28;20491;-83
2022/05/10 06:32:50;;;;;;;14.60;7.32;;;;;;;;;;5099119;28;20398;-83
2022/05/10 06:35:17;;;;;;;21.75;7.93;;;;;;;;;;5100608;28;20020;-83
2022/05/10 06:40:28;;;;;;;15.98;8.32;;;;;;;;;;5099936;28;20035;-81
2022/05/10 06:42:54;;;;;;;14.65;9.25;;;;;;;;;;5100360;28;20666;-82
2022/05/10 06:45:20;;;;;;;12.93;7.93;;;;;;;;;;5100374;28;20028;-82
2022/05/10 06:47:48;;;;;;;15.05;8.07;;;;;;;;;;5100511;28;20036;-82
2022/05/10 06:50:16;;;;;;;13.10;8.35;;;;;;;;;;5100156;28;20020;-82
2022/05/10 06:52:42;;;;;;;12.75;8.52;;;;;;;;;;5100430;28;20031;-82
2022/05/10 06:55:09;;;;;;;9.73;7.70;;;;;;;;;;5100113;28;20096;-82
2022/05/10 06:57:35;;;;;;;13.75;7.45;;;;;;;;;;5099340;28;20023;-82
2022/05/10 07:00:01;;;;;;;9.68;8.27;;;;;;;;;;5099780;28;20020;-82
2022/05/10 07:02:27;;;;;;;11.32;8.10;;;;;;;;;;5098848;28;20024;-82
2022/05/10 07:04:54;;;;;;;11.65;7.70;;;;;;;;;;5100159;28;20032;-82
2022/05/10 07:07:20;;;;;;;10.57;7.55;;;;;;;;;;5100965;28;20019;-83
2022/05/10 07:09:46;;;;;;;10.27;7.40;;;;;;;;;;5101213;28;20550;-82
2022/05/10 07:12:12;;;;;;;9.75;7.95;;;;;;;;;;5101962;28;20025;-82
2022/05/10 07:14:38;;;;;;;10.32;7.90;;;;;;;;;;5100859;28;20034;-82
2022/05/10 07:17:04;;;;;;;10.70;8.40;;;;;;;;;;5100735;28;20111;-83
2022/05/10 07:19:30;;;;;;;11.35;8.70;;;;;;;;;;5098320;28;20023;-83
2022/05/10 07:21:56;;;;;;;12.25;8.30;;;;;;;;;;5097836;28;20052;-82
2022/05/10 07:24:22;;;;;;;10.73;8.48;;;;;;;;;;5099760;28;20032;-82
2022/05/10 07:26:48;;;;;;;11.02;7.80;;;;;;;;;;5097683;28;20032;-82
2022/05/10 07:29:16;;;;;;;11.13;8.10;;;;;;;;;;5097946;28;20031;-82
2022/05/10 07:31:42;;;;;;;12.68;8.45;;;;;;;;;;5099268;28;20020;-82
2022/05/10 07:34:08;;;;;;;11.63;8.10;;;;;;;;;;5096785;28;20027;-82
2022/05/10 07:36:34;;;;;;;10.60;7.78;;;;;;;;;;5097826;28;20035;-82
2022/05/10 07:39:05;;;;;;;9.20;7.28;;;;;;;;;;5099237;28;20016;-81
2022/05/10 07:41:31;;;;;;;10.85;7.90;;;;;;;;;;5098234;28;20034;-82
2022/05/10 07:43:57;;;;;;;12.63;8.77;;;;;;;;;;5100344;28;20024;-82
2022/05/10 07:46:24;;;;;;;10.45;8.30;;;;;;;;;;5099380;28;20039;-81
2022/05/10 07:48:50;;;;;;;10.85;7.90;;;;;;;;;;5111043;28;20055;-81
2022/05/10 07:51:16;;;;;;;11.38;8.57;;;;;;;;;;5109493;28;20451;-81
2022/05/10 07:53:42;;;;;;;11.38;8.57;;;;;;;;;;5100258;28;20032;-82
2022/05/10 07:56:08;;;;;;;11.50;8.73;;;;;;;;;;5098446;28;20024;-82
2022/05/10 07:58:35;;;;;;;11.88;8.63;;;;;;;;;;5098402;28;20459;-82
2022/05/10 08:01:01;;;;;;;12.75;9.60;;;;;;;;;;5097046;28;20019;-83
2022/05/10 08:03:27;;;;;;;10.88;9.43;;;;;;;;;;5097733;28;20016;-84
2022/05/10 08:05:59;;;;;;;11.32;9.50;;;;;;;;;;5097517;28;20020;-82
2022/05/10 08:08:25;;;;;;;11.65;9.48;;;;;;;;;;5098568;28;20016;-83
2022/05/10 08:10:53;;;;;;;12.85;10.23;;;;;;;;;;5096834;28;20073;-84
2022/05/10 08:13:21;;;;;;;13.52;9.93;;;;;;;;;;5097577;28;20024;-85
2022/05/10 08:15:47;;;;;;;12.07;10.32;;;;;;;;;;5095612;28;20050;-81
2022/05/10 08:18:13;;;;;;;11.13;9.90;;;;;;;;;;5093359;28;20016;-83
2022/05/10 08:20:40;;;;;;;13.18;10.57;;;;;;;;;;5078399;28;20032;-85
2022/05/10 08:23:06;;;;;;;14.85;10.30;;;;;;;;;;5094494;28;20028;-82
2022/05/10 08:25:33;;;;;;;14.00;11.93;;;;;;;;;;5096696;28;20023;-82
2022/05/10 08:28:06;;;;;;;13.02;10.68;;;;;;;;;;5097734;28;20433;-82
2022/05/10 08:30:38;;;;;;;13.88;12.43;;;;;;;;;;5100451;28;20028;-80
2022/05/10 08:33:10;;;;;;;14.23;11.95;;;;;;;;;;5092221;28;20189;-81
2022/05/10 08:35:42;;;;;;;13.38;11.60;;;;;;;;;;5090829;28;20058;-82
2022/05/10 08:38:13;;;;;;;13.40;12.00;;;;;;;;;;5112130;27;20106;-82
2022/05/10 08:41:10;;;;;;;13.77;12.15;;;;;;;;;;5096849;28;20070;-81
2022/05/10 08:43:47;;;;;;;14.40;12.45;;;;;;;;;;5094813;28;20040;-81
2022/05/10 08:46:17;;;;;;;14.82;11.13;;;;;;;;;;5093293;28;20373;-81
2022/05/10 08:48:51;;;;;;;14.52;13.00;;;;;;;;;;5097001;28;20541;-81
2022/05/10 08:51:18;;;;;;;14.55;13.05;;;;;;;;;;5098918;28;20058;-81
2022/05/10 08:53:49;;;;;;;14.50;12.00;;;;;;;;;;5103648;28;20035;-81
2022/05/10 08:56:22;;;;;;;15.65;11.82;;;;;;;;;;5095513;28;20028;-81
2022/05/10 08:58:51;;;;;;;12.98;10.45;;;;;;;;;;5092648;28;20032;-82
2022/05/10 09:01:24;;;;;;;11.25;10.05;;;;;;;;;;5097002;28;20117;-82
2022/05/10 09:04:12;;;;;;;11.30;9.30;;;;;;;;;;5095921;28;20084;-82
2022/05/10 09:06:57;;;;;;;11.60;10.40;;;;;;;;;;5095803;28;20456;-81
2022/05/10 09:09:38;;;;;;;11.98;10.77;;;;;;;;;;5093862;28;20443;-82
2022/05/10 09:12:21;;;;;;;11.73;9.65;;;;;;;;;;5051504;28;20290;-81
2022/05/10 09:15:12;;;;;;;11.23;10.00;;;;;;;;;;5052012;28;20025;-82
2022/05/10 09:17:41;;;;;;;12.48;10.45;;;;;;;;;;5052518;28;20206;-82
2022/05/10 09:20:12;;;;;;;12.75;9.18;;;;;;;;;;5036089;28;20156;-82
2022/05/10 09:23:04;;;;;;;11.82;10.60;;;;;;;;;;5031704;28;20041;-82
2022/05/10 09:25:38;;;;;;;11.77;10.55;;;;;;;;;;5017241;28;20026;-83
2022/05/10 09:28:26;;;;;;;12.15;10.85;;;;;;;;;;5007339;28;20285;-82
2022/05/10 09:36:38;;;;;;;12.40;10.13;;;;;;;;;;5001417;28;20041;-82
2022/05/10 09:39:24;;;;;;;12.35;9.50;;;;;;;;;;5021067;28;20049;-82
2022/05/10 09:41:53;;;;;;;10.70;9.05;;;;;;;;;;5034947;28;20047;-82
2022/05/10 09:44:30;;;;;;;14.35;9.23;;;;;;;;;;5086852;28;20037;-82
2022/05/10 09:47:34;;;;;;;10.43;9.40;;;;;;;;;;5099852;28;20039;-82
2022/05/10 09:50:15;;;;;;;11.55;8.85;;;;;;;;;;5024613;28;20040;-82
2022/05/10 09:52:46;;;;;;;12.80;10.38;;;;;;;;;;5013573;28;20034;-82
2022/05/10 09:55:31;;;;;;;11.15;9.77;;;;;;;;;;4991515;28;20040;-82
2022/05/10 09:58:13;;;;;;;10.27;8.80;;;;;;;;;;5009668;28;20057;-83
2022/05/10 10:00:52;;;;;;;11.65;9.20;;;;;;;;;;4995535;28;20037;-83
2022/05/10 10:03:32;;;;;;;11.35;8.50;;;;;;;;;;5003121;28;20038;-82
2022/05/10 10:06:18;;;;;;;11.18;8.52;;;;;;;;;;4997492;28;20080;-82
2022/05/10 10:08:49;;;;;;;11.52;8.02;;;;;;;;;;4980490;28;20102;-82
2022/05/10 10:11:29;;;;;;;9.32;7.82;;;;;;;;;;5016269;28;20034;-81
2022/05/10 10:14:06;;;;;;;8.80;7.53;;;;;;;;;;5011041;28;20041;-82
2022/05/10 10:16:41;;;;;;;9.02;6.90;;;;;;;;;;4999050;28;20018;-82
2022/05/10 10:19:38;;;;;;;9.95;7.13;;;;;;;;;;5006510;28;20042;-82
2022/05/10 10:22:25;;;;;;;8.82;7.18;;;;;;;;;;5037580;28;20136;-82
2022/05/10 10:24:56;;;;;;;10.85;5.97;;;;;;;;;;5107520;28;20065;-82
2022/05/10 10:27:47;;;;;;;7.57;6.07;;;;;;;;;;5115847;28;20092;-81
2022/05/10 10:30:19;;;;;;;8.75;5.38;;;;;;;;;;5113329;28;20016;-82
2022/05/10 10:32:52;;;;;;;7.47;5.03;;;;;;;;;;5126639;28;20016;-82
2022/05/10 10:35:29;;;;;;;7.28;6.20;;;;;;;;;;5114460;28;20082;-83
2022/05/10 10:38:06;;;;;;;8.10;5.93;;;;;;;;;;5099852;28;20017;-83
2022/05/10 10:40:39;;;;;;;8.10;5.45;;;;;;;;;;5096637;28;20041;-83
2022/05/10 10:43:27;;;;;;;7.93;5.40;;;;;;;;;;5097795;28;20454;-83
2022/05/10 10:46:18;;;;;;;7.43;5.22;;;;;;;;;;5101679;28;20115;-83
2022/05/10 10:48:48;;;;;;;8.00;4.72;;;;;;;;;;5096189;28;20028;-82
2022/05/10 10:51:16;;;;;;;8.27;5.90;;;;;;;;;;5095006;28;20039;-83
2022/05/10 10:53:58;;;;;;;7.97;5.75;;;;;;;;;;5097976;28;20024;-83
2022/05/10 10:56:30;;;;;;;7.13;5.72;;;;;;;;;;5104264;28;20062;-83
2022/05/10 10:59:15;;;;;;;9.30;6.07;;;;;;;;;;5114068;28;20024;-82
2022/05/10 11:02:10;;;;;;;7.88;5.40;;;;;;;;;;5097863;28;20032;-83
2022/05/10 11:04:46;;;;;;;8.07;5.88;;;;;;;;;;5110873;28;20024;-83
2022/05/10 11:07:26;;;;;;;7.13;5.80;;;;;;;;;;5099101;28;20024;-82
2022/05/10 11:10:04;;;;;;;8.00;6.05;;;;;;;;;;5097014;28;20173;-82
2022/05/10 11:12:52;;;;;;;9.27;6.30;;;;;;;;;;5080390;28;20021;-82
2022/05/10 11:15:36;;;;;;;7.97;5.82;;;;;;;;;;5096886;28;20088;-82
2022/05/10 11:18:13;;;;;;;7.88;5.10;;;;;;;;;;5098561;28;20024;-82
2022/05/10 11:20:55;;;;;;;7.15;5.60;;;;;;;;;;5097645;28;20059;-81
2022/05/10 11:23:33;;;;;;;8.65;6.80;;;;;;;;;;5081462;28;20054;-81
2022/05/10 11:26:11;;;;;;;7.75;5.57;;;;;;;;;;5097698;28;20078;-82
2022/05/10 11:29:05;;;;;;;9.57;5.68;;;;;;;;;;5081814;28;20464;-82
2022/05/10 11:31:37;;;;;;;7.00;4.93;;;;;;;;;;5098438;28;20101;-82
2022/05/10 11:34:26;;;;;;;8.55;5.18;;;;;;;;;;5081616;28;20024;-82
2022/05/10 11:36:59;;;;;;;7.25;4.47;;;;;;;;;;5081188;28;20089;-82
2022/05/10 11:39:29;;;;;;;5.78;4.40;;;;;;;;;;5077824;28;20495;-82
2022/05/10 11:42:19;;;;;;;6.50;4.60;;;;;;;;;;5078211;28;20016;-83
2022/05/10 11:45:01;;;;;;;8.63;4.38;;;;;;;;;;5078102;28;20424;-82
2022/05/10 11:47:48;;;;;;;6.07;4.15;;;;;;;;;;5082240;28;20024;-82
2022/05/10 11:50:22;;;;;;;5.68;4.13;;;;;;;;;;5080107;28;20036;-83
2022/05/10 11:53:07;;;;;;;5.93;4.30;;;;;;;;;;5080039;28;20028;-83
2022/05/10 11:55:36;;;;;;;7.03;3.70;;;;;;;;;;5081149;28;20066;-82
2022/05/10 11:58:05;;;;;;;5.80;4.05;;;;;;;;;;5080431;28;20032;-82
2022/05/10 12:00:42;;;;;;;6.63;4.28;;;;;;;;;;5081108;28;20032;-81
2022/05/10 12:03:14;;;;;;;6.20;3.80;;;;;;;;;;5099282;28;20119;-82
2022/05/10 12:05:41;;;;;;;6.03;3.90;;;;;;;;;;5064529;28;20063;-81
2022/05/10 12:08:20;;;;;;;6.00;3.95;;;;;;;;;;5080408;28;20039;-82
2022/05/10 12:10:49;;;;;;;8.13;4.05;;;;;;;;;;5096862;28;20380;-82
2022/05/10 12:22:21;;;;;;;5.72;3.38;;;;;;;;;;5099566;28;20391;-82
2022/05/10 12:24:53;;;;;;;5.63;3.75;;;;;;;;;;5081180;28;20032;-83
2022/05/10 12:27:32;;;;;;;5.30;3.50;;;;;;;;;;5076785;28;20025;-82
2022/05/10 12:30:05;;;;;;;5.18;3.65;;;;;;;;;;5080554;28;20213;-82
2022/05/10 12:33:03;;;;;;;;;;;;;;;;;;;;;
2022/05/10 12:35:46;;;;;;;6.53;2.90;;;;;;;;;;5095176;28;20099;-81
2022/05/10 12:38:34;;;;;;;5.15;3.13;;;;;;;;;;5080592;28;20031;-82
2022/05/10 12:41:06;;;;;;;5.18;3.25;;;;;;;;;;5096098;28;20016;-82
2022/05/10 12:43:34;;;;;;;;;;;;;;;;;;5075842;28;20032;-82
2022/05/10 12:46:37;;;;;;;6.00;3.13;;;;;;;;;;5080832;28;19900;-82
2022/05/10 12:49:22;;;;;;;6.07;2.88;;;;;;;;;;5058005;28;20043;-81
2022/05/10 12:52:20;;;;;;;5.55;2.95;;;;;;;;;;5079428;28;20062;-82
2022/05/10 12:54:50;;;;;;;5.90;3.20;;;;;;;;;;5078308;28;20021;-82
2022/05/10 12:57:30;;;;;;;6.18;3.05;;;;;;;;;;5058969;28;20432;-83
2022/05/10 13:00:13;;;;;;;6.55;3.28;;;;;;;;;;5076484;28;20024;-81
2022/05/10 13:02:54;;;;;;;4.43;2.90;;;;;;;;;;5094919;28;20028;-82
2022/05/10 13:05:28;;;;;;;4.95;3.20;;;;;;;;;;5078440;28;20055;-82
2022/05/10 13:08:00;;;;;;;7.15;3.17;;;;;;;;;;5077243;28;20032;-82
2022/05/10 13:10:33;;;;;;;5.28;3.25;;;;;;;;;;5080339;28;20025;-82
2022/05/10 13:13:18;;;;;;;4.97;2.80;;;;;;;;;;5060040;28;20396;-82
2022/05/10 13:15:50;;;;;;;5.07;2.95;;;;;;;;;;5081772;28;20243;-82
2022/05/10 13:18:29;;;;;;;6.32;3.10;;;;;;;;;;5078960;28;20028;-82
2022/05/10 13:21:03;;;;;;;6.07;3.20;;;;;;;;;;5079646;28;20080;-83
2022/05/10 13:23:34;;;;;;;5.82;3.20;;;;;;;;;;5098023;28;20046;-81
2022/05/10 13:26:19;;;;;;;5.25;3.00;;;;;;;;;;5078633;28;20047;-81
2022/05/10 13:29:03;;;;;;;7.40;3.40;;;;;;;;;;5098512;28;20032;-81
2022/05/10 13:31:47;;;;;;;6.95;3.55;;;;;;;;;;5080580;28;20035;-83
2022/05/10 13:34:27;;;;;;;5.70;3.17;;;;;;;;;;5078110;28;20020;-82
2022/05/10 13:36:53;;;;;;;5.82;3.33;;;;;;;;;;5066217;28;20028;-82
2022/05/10 13:39:29;;;;;;;6.35;3.38;;;;;;;;;;5079448;28;20024;-82
2022/05/10 13:42:08;;;;;;;6.28;3.20;;;;;;;;;;5096971;28;20115;-82
2022/05/10 13:44:44;;;;;;;4.70;2.97;;;;;;;;;;5075553;28;20028;-82
2022/05/10 13:47:26;;;;;;;5.13;2.95;;;;;;;;;;5060945;28;20032;-82
2022/05/10 13:50:03;;;;;;;4.57;2.78;;;;;;;;;;5059905;28;20028;-81
2022/05/10 13:52:38;;;;;;;6.90;2.83;;;;;;;;;;5091053;28;20392;-82
2022/05/10 13:55:17;;;;;;;6.38;3.00;;;;;;;;;;5075768;28;20016;-82
2022/05/10 13:58:00;;;;;;;6.15;2.92;;;;;;;;;;5093864;28;20024;-82
2022/05/10 14:00:35;;;;;;;7.75;3.38;;;;;;;;;;5095376;28;20056;-81
2022/05/10 14:03:03;;;;;;;5.97;3.15;;;;;;;;;;5078815;28;20048;-81
2022/05/10 14:05:34;;;;;;;4.75;3.00;;;;;;;;;;5092165;28;20032;-80
2022/05/10 14:08:08;;;;;;;7.03;3.47;;;;;;;;;;5088564;28;20054;-80
2022/05/10 14:10:42;;;;;;;6.22;3.33;;;;;;;;;;5091179;28;20083;-81
2022/05/10 14:13:19;;;;;;;5.22;2.92;;;;;;;;;;5094136;28;20028;-81
2022/05/10 14:15:47;;;;;;;6.15;3.60;;;;;;;;;;5096951;28;20017;-81
2022/05/10 14:18:28;;;;;;;7.28;3.90;;;;;;;;;;5073209;28;20032;-82
2022/05/10 14:21:11;;;;;;;5.75;3.90;;;;;;;;;;5099466;28;20039;-82
2022/05/10 14:23:45;;;;;;;7.00;3.75;;;;;;;;;;5078933;28;20052;-82
2022/05/10 14:26:36;;;;;;;7.53;3.72;;;;;;;;;;5097691;28;20036;-81
2022/05/10 14:29:17;;;;;;;5.57;3.53;;;;;;;;;;5080384;28;20109;-82
2022/05/10 14:31:54;;;;;;;5.95;3.53;;;;;;;;;;5078428;28;20031;-82
2022/05/10 14:34:44;;;;;;;5.22;3.85;;;;;;;;;;5097989;28;20392;-80
2022/05/10 14:37:32;;;;;;;6.60;3.53;;;;;;;;;;5078788;28;20043;-82
2022/05/10 14:40:19;;;;;;;7.28;4.00;;;;;;;;;;5078645;28;20123;-82
2022/05/10 14:43:12;;;;;;;5.35;3.50;;;;;;;;;;5074011;28;20567;-83
2022/05/10 14:45:47;;;;;;;6.15;3.90;;;;;;;;;;5072378;28;20136;-82
2022/05/10 14:48:41;;;;;;;9.70;3.75;;;;;;;;;;5078012;28;20422;-82
2022/05/10 14:51:28;;;;;;;7.65;4.05;;;;;;;;;;5078570;28;20483;-82
2022/05/10 14:53:55;;;;;;;5.75;3.50;;;;;;;;;;5084090;28;20396;-82
2022/05/10 14:56:27;;;;;;;7.18;3.58;;;;;;;;;;5082575;28;20388;-82
2022/05/10 14:58:57;;;;;;;7.90;3.75;;;;;;;;;;5082807;28;20017;-82
2022/05/10 15:01:36;;;;;;;5.10;3.33;;;;;;;;;;5078099;28;20506;-82
2022/05/10 15:04:26;;;;;;;6.90;3.58;;;;;;;;;;5085568;28;20399;-81
2022/05/10 15:06:54;;;;;;;6.72;3.30;;;;;;;;;;5098849;28;20063;-81
2022/05/10 15:09:29;;;;;;;6.50;3.88;;;;;;;;;;5082404;28;20115;-82
2022/05/10 15:14:53;;;;;;;5.50;3.40;;;;;;;;;;5077852;28;20067;-82
2022/05/10 15:17:25;;;;;;;5.55;3.58;;;;;;;;;;5040812;28;20105;-82
2022/05/10 15:19:54;;;;;;;6.03;3.53;;;;;;;;;;5053758;28;20440;-82
2022/05/10 15:22:30;;;;;;;5.15;3.33;;;;;;;;;;5057130;28;20041;-82
2022/05/10 15:25:16;;;;;;;5.63;3.03;;;;;;;;;;5071897;28;20610;-82
2022/05/10 15:27:43;;;;;;;5.55;3.30;;;;;;;;;;5074051;28;20543;-82
2022/05/10 15:30:14;;;;;;;6.05;3.60;;;;;;;;;;5098127;28;20040;-83